createdAt,value
2018-07-26T00:00:10.039Z,18.60
2018-07-26T00:02:37.573Z,18.60
2018-07-26T00:05:05.136Z,18.50
2018-07-26T00:10:00.179Z,18.50
2018-07-26T00:12:27.740Z,18.50
2018-07-26T00:14:55.287Z,18.40
2018-07-26T00:17:22.831Z,18.50
2018-07-26T00:19:50.311Z,18.50
2018-07-26T00:22:17.818Z,18.40
2018-07-26T00:24:45.336Z,18.40
2018-07-26T00:27:12.862Z,18.40
2018-07-26T00:29:40.383Z,18.30
2018-07-26T00:32:07.935Z,18.30
2018-07-26T00:34:35.428Z,18.20
2018-07-26T00:37:02.992Z,18.20
2018-07-26T00:39:31.502Z,18.20
2018-07-26T00:44:26.477Z,18.10
2018-07-26T00:46:54.020Z,18.10
2018-07-26T00:49:21.554Z,18.10
2018-07-26T00:51:51.147Z,18.10
2018-07-26T00:54:18.658Z,18.10
2018-07-26T00:56:46.143Z,18.00
2018-07-26T00:59:13.658Z,18.00
2018-07-26T01:01:41.178Z,17.90
2018-07-26T01:04:08.742Z,17.90
2018-07-26T01:06:36.387Z,17.90
2018-07-26T01:09:07.396Z,17.90
2018-07-26T01:11:34.962Z,17.80
2018-07-26T01:14:03.106Z,17.70
2018-07-26T01:16:30.705Z,17.70
2018-07-26T01:18:58.303Z,17.60
2018-07-26T01:21:26.068Z,17.60
2018-07-26T01:23:53.636Z,17.60
2018-07-26T01:28:48.782Z,17.50
2018-07-26T01:31:16.445Z,17.50
2018-07-26T01:33:44.066Z,17.50
2018-07-26T01:36:11.664Z,17.40
2018-07-26T01:38:39.225Z,17.40
2018-07-26T01:41:06.813Z,17.40
2018-07-26T01:43:47.865Z,17.40
2018-07-26T01:46:15.833Z,17.40
2018-07-26T01:48:43.805Z,17.30
2018-07-26T01:51:12.269Z,17.30
2018-07-26T01:53:39.951Z,17.30
2018-07-26T01:56:08.612Z,17.30
2018-07-26T02:01:04.332Z,17.20
2018-07-26T02:03:31.974Z,17.20
2018-07-26T02:05:59.988Z,17.20
2018-07-26T02:08:27.680Z,17.10
2018-07-26T02:10:55.444Z,17.10
2018-07-26T02:13:23.041Z,17.10
2018-07-26T02:15:50.865Z,17.10
2018-07-26T02:18:18.456Z,17.10
2018-07-26T02:20:46.020Z,17.00
2018-07-26T02:23:13.612Z,17.00
2018-07-26T02:25:41.247Z,17.00
2018-07-26T02:28:08.841Z,17.00
2018-07-26T02:30:36.426Z,17.00
2018-07-26T02:33:03.989Z,17.00
2018-07-26T02:35:31.561Z,17.00
2018-07-26T02:37:59.141Z,17.00
2018-07-26T02:40:26.761Z,17.00
2018-07-26T02:42:54.328Z,16.90
2018-07-26T02:45:21.975Z,16.90
2018-07-26T02:47:49.527Z,16.90
2018-07-26T02:50:17.150Z,16.90
2018-07-26T02:52:44.744Z,16.90
2018-07-26T02:55:12.536Z,16.90
2018-07-26T02:57:40.094Z,16.90
2018-07-26T03:00:07.911Z,16.90
2018-07-26T03:02:35.465Z,16.90
2018-07-26T03:05:03.052Z,16.90
2018-07-26T03:07:30.629Z,16.90
2018-07-26T03:09:58.221Z,16.90
2018-07-26T03:12:26.179Z,16.90
2018-07-26T03:14:53.755Z,16.90
2018-07-26T03:17:21.393Z,16.90
2018-07-26T03:22:17.062Z,16.80
2018-07-26T03:24:44.601Z,16.70
2018-07-26T03:27:12.167Z,16.70
2018-07-26T03:29:39.773Z,16.60
2018-07-26T03:32:07.745Z,16.60
2018-07-26T03:34:35.349Z,16.60
2018-07-26T03:37:03.046Z,16.50
2018-07-26T03:39:30.637Z,16.50
2018-07-26T03:41:58.213Z,16.50
2018-07-26T03:46:53.356Z,16.50
2018-07-26T03:49:20.959Z,16.50
2018-07-26T03:51:48.655Z,16.50
2018-07-26T03:56:43.809Z,16.50
2018-07-26T03:59:11.424Z,16.50
2018-07-26T04:01:39.035Z,16.50
2018-07-26T04:04:07.543Z,16.50
2018-07-26T04:06:35.213Z,16.50
2018-07-26T04:09:05.397Z,16.40
2018-07-26T04:11:33.005Z,16.50
2018-07-26T04:14:00.747Z,16.40
2018-07-26T04:16:28.328Z,16.50
2018-07-26T04:18:56.009Z,16.50
2018-07-26T04:21:23.708Z,16.50
2018-07-26T04:23:51.449Z,16.50
2018-07-26T04:28:46.705Z,16.50
2018-07-26T04:31:14.341Z,16.50
2018-07-26T04:33:42.097Z,16.50
2018-07-26T04:36:09.743Z,16.60
2018-07-26T04:38:37.446Z,16.60
2018-07-26T04:41:05.027Z,16.60
2018-07-26T04:43:32.788Z,16.60
2018-07-26T04:46:00.470Z,16.70
2018-07-26T04:48:28.118Z,16.70
2018-07-26T04:50:56.103Z,16.80
2018-07-26T04:55:51.829Z,16.80
2018-07-26T04:58:19.436Z,16.90
2018-07-26T05:00:47.124Z,16.90
2018-07-26T05:03:14.769Z,17.00
2018-07-26T05:05:42.425Z,17.00
2018-07-26T05:08:10.150Z,17.10
2018-07-26T05:10:37.955Z,17.10
2018-07-26T05:13:05.875Z,17.20
2018-07-26T05:15:33.714Z,17.20
2018-07-26T05:20:29.493Z,17.30
2018-07-26T05:22:57.671Z,17.40
2018-07-26T05:25:25.366Z,17.50
2018-07-26T05:27:53.153Z,17.60
2018-07-26T05:30:20.673Z,17.70
2018-07-26T05:32:48.376Z,17.80
2018-07-26T05:35:19.322Z,17.90
2018-07-26T05:40:14.697Z,18.00
2018-07-26T05:42:42.560Z,18.10
2018-07-26T05:45:13.358Z,18.20
2018-07-26T05:47:41.062Z,18.40
2018-07-26T05:50:09.037Z,18.50
2018-07-26T05:52:37.304Z,18.60
2018-07-26T05:55:05.929Z,18.80
2018-07-26T05:57:33.676Z,18.90
2018-07-26T06:00:01.372Z,19.10
2018-07-26T06:02:28.980Z,19.20
2018-07-26T06:04:56.648Z,19.30
2018-07-26T06:07:24.390Z,19.50
2018-07-26T06:09:52.068Z,19.60
2018-07-26T06:12:19.685Z,19.80
2018-07-26T06:14:47.307Z,19.90
2018-07-26T06:17:14.949Z,20.10
2018-07-26T06:19:46.166Z,20.20
2018-07-26T06:22:15.151Z,20.40
2018-07-26T06:24:43.379Z,20.50
2018-07-26T06:27:11.405Z,20.60
2018-07-26T06:29:39.080Z,20.80
2018-07-26T06:32:06.937Z,21.00
2018-07-26T06:37:03.185Z,21.40
2018-07-26T06:39:30.890Z,21.60
2018-07-26T06:41:58.588Z,21.70
2018-07-26T06:44:26.188Z,21.90
2018-07-26T06:46:53.793Z,22.10
2018-07-26T06:49:21.422Z,22.30
2018-07-26T06:51:49.011Z,22.50
2018-07-26T06:54:16.658Z,22.70
2018-07-26T06:56:44.432Z,23.00
2018-07-26T06:59:12.132Z,23.20
2018-07-26T07:01:40.909Z,23.50
2018-07-26T07:04:08.523Z,23.60
2018-07-26T07:06:36.235Z,23.80
2018-07-26T07:09:07.130Z,24.00
2018-07-26T07:11:34.732Z,24.30
2018-07-26T07:14:02.444Z,24.60
2018-07-26T07:16:30.039Z,24.80
2018-07-26T07:18:57.716Z,25.00
2018-07-26T07:21:25.472Z,25.30
2018-07-26T07:23:53.188Z,25.70
2018-07-26T07:26:20.985Z,26.10
2018-07-26T07:28:48.765Z,26.60
2018-07-26T07:31:16.452Z,27.10
2018-07-26T07:33:47.897Z,27.50
2018-07-26T07:36:15.608Z,27.90
2018-07-26T07:38:43.592Z,28.10
2018-07-26T07:41:11.424Z,28.40
2018-07-26T07:43:39.125Z,28.90
2018-07-26T07:46:06.778Z,29.30
2018-07-26T07:52:05.455Z,29.70
2018-07-26T07:54:33.321Z,30.10
2018-07-26T07:57:01.035Z,30.40
2018-07-26T07:59:32.154Z,30.70
2018-07-26T08:01:59.973Z,31.00
2018-07-26T08:04:28.991Z,31.20
2018-07-26T08:06:56.994Z,31.30
2018-07-26T08:09:24.650Z,31.40
2018-07-26T08:14:20.837Z,32.10
2018-07-26T08:16:49.175Z,31.70
2018-07-26T08:19:16.889Z,31.70
2018-07-26T08:21:46.020Z,31.80
2018-07-26T08:24:13.780Z,31.80
2018-07-26T08:26:41.423Z,31.90
2018-07-26T08:29:09.216Z,32.00
2018-07-26T08:31:36.873Z,32.30
2018-07-26T08:34:04.805Z,32.30
2018-07-26T08:36:32.444Z,32.10
2018-07-26T08:39:00.101Z,31.80
2018-07-26T08:41:27.801Z,31.40
2018-07-26T08:43:55.453Z,31.30
2018-07-26T08:46:23.112Z,31.70
2018-07-26T08:48:50.787Z,32.10
2018-07-26T08:51:18.546Z,32.50
2018-07-26T08:53:46.194Z,32.80
2018-07-26T08:56:13.852Z,32.70
2018-07-26T08:58:41.519Z,33.00
2018-07-26T09:01:13.387Z,33.30
2018-07-26T09:03:40.940Z,33.80
2018-07-26T09:06:08.837Z,33.90
2018-07-26T09:08:36.457Z,33.90
2018-07-26T09:11:04.078Z,33.60
2018-07-26T09:13:31.864Z,33.50
2018-07-26T09:15:59.416Z,33.20
2018-07-26T09:18:27.242Z,33.00
2018-07-26T09:20:55.125Z,33.40
2018-07-26T09:23:22.793Z,34.00
2018-07-26T09:25:50.424Z,34.50
2018-07-26T09:28:18.019Z,34.80
2018-07-26T09:30:45.600Z,34.90
2018-07-26T09:33:13.270Z,35.10
2018-07-26T09:38:08.542Z,35.00
2018-07-26T09:40:36.166Z,35.00
2018-07-26T09:43:03.929Z,35.20
2018-07-26T09:45:32.231Z,35.30
2018-07-26T09:47:59.843Z,35.60
2018-07-26T09:50:27.566Z,35.80
2018-07-26T09:52:55.187Z,36.00
2018-07-26T09:55:23.032Z,35.50
2018-07-26T10:00:24.099Z,34.30
2018-07-26T10:02:51.676Z,34.00
2018-07-26T10:05:19.297Z,34.00
2018-07-26T10:07:46.876Z,34.30
2018-07-26T10:12:42.077Z,35.30
2018-07-26T10:15:10.705Z,35.80
2018-07-26T10:17:38.335Z,36.10
2018-07-26T10:20:07.063Z,35.80
2018-07-26T10:22:34.868Z,35.80
2018-07-26T10:25:02.468Z,36.20
2018-07-26T10:27:30.013Z,36.00
2018-07-26T10:29:57.624Z,35.60
2018-07-26T10:32:25.277Z,35.60
2018-07-26T10:34:52.868Z,35.30
2018-07-26T10:37:20.499Z,35.10
2018-07-26T10:39:48.089Z,34.70
2018-07-26T10:42:15.736Z,34.60
2018-07-26T10:44:43.324Z,34.60
2018-07-26T10:47:10.900Z,35.10
2018-07-26T10:49:38.519Z,35.20
2018-07-26T10:52:06.209Z,35.30
2018-07-26T10:54:33.801Z,35.70
2018-07-26T10:57:01.405Z,35.70
2018-07-26T10:59:29.043Z,35.70
2018-07-26T11:01:56.774Z,35.90
2018-07-26T11:04:24.346Z,36.10
2018-07-26T11:06:52.051Z,36.00
2018-07-26T11:09:19.724Z,35.50
2018-07-26T11:11:47.348Z,35.80
2018-07-26T11:14:14.969Z,35.60
2018-07-26T11:16:42.545Z,35.70
2018-07-26T11:19:10.166Z,35.60
2018-07-26T11:21:37.774Z,35.60
2018-07-26T11:24:06.116Z,35.70
2018-07-26T11:26:33.718Z,36.10
2018-07-26T11:29:01.348Z,36.70
2018-07-26T11:31:28.976Z,37.50
2018-07-26T11:33:56.648Z,37.80
2018-07-26T11:36:24.266Z,37.60
2018-07-26T11:38:51.881Z,37.70
2018-07-26T11:41:19.461Z,37.20
2018-07-26T11:43:50.399Z,36.80
2018-07-26T11:46:17.990Z,36.30
2018-07-26T11:48:45.594Z,36.60
2018-07-26T11:51:13.228Z,36.80
2018-07-26T11:53:40.824Z,36.90
2018-07-26T11:56:08.474Z,36.80
2018-07-26T11:58:36.131Z,36.90
2018-07-26T12:01:03.900Z,36.50
2018-07-26T12:03:31.471Z,36.40
2018-07-26T12:05:59.058Z,36.80
2018-07-26T12:08:27.038Z,37.30
2018-07-26T12:10:54.781Z,37.80
2018-07-26T12:13:22.509Z,37.50
2018-07-26T12:15:50.123Z,36.90
2018-07-26T12:18:17.728Z,37.00
2018-07-26T12:20:45.389Z,36.80
2018-07-26T12:23:13.089Z,36.90
2018-07-26T12:25:40.737Z,37.40
2018-07-26T12:28:08.347Z,37.40
2018-07-26T12:30:35.957Z,37.40
2018-07-26T12:33:03.562Z,37.10
2018-07-26T12:35:31.141Z,37.00
2018-07-26T12:40:26.268Z,36.70
2018-07-26T12:42:54.291Z,36.50
2018-07-26T12:45:21.941Z,36.30
2018-07-26T12:47:49.520Z,36.30
2018-07-26T12:50:17.212Z,36.50
2018-07-26T12:52:44.847Z,36.70
2018-07-26T12:55:12.521Z,36.40
2018-07-26T12:57:40.144Z,36.40
2018-07-26T13:00:07.940Z,36.30
2018-07-26T13:02:35.609Z,36.60
2018-07-26T13:05:03.249Z,36.90
2018-07-26T13:07:30.994Z,36.70
2018-07-26T13:09:58.773Z,37.00
2018-07-26T13:12:26.492Z,37.30
2018-07-26T13:14:54.205Z,36.80
2018-07-26T13:17:21.764Z,35.60
2018-07-26T13:19:49.368Z,35.30
2018-07-26T13:22:16.960Z,35.40
2018-07-26T13:24:44.827Z,35.00
2018-07-26T13:27:12.470Z,34.50
2018-07-26T13:29:40.075Z,34.10
2018-07-26T13:32:08.321Z,34.40
2018-07-26T13:34:35.956Z,34.90
2018-07-26T13:37:03.524Z,35.50
2018-07-26T13:39:31.240Z,35.80
2018-07-26T13:41:58.842Z,36.10
2018-07-26T13:44:26.464Z,36.40
2018-07-26T13:46:54.081Z,36.60
2018-07-26T13:49:21.673Z,36.20
2018-07-26T13:51:49.252Z,36.00
2018-07-26T13:56:44.685Z,35.70
2018-07-26T13:59:12.277Z,36.00
2018-07-26T14:01:39.897Z,36.10
2018-07-26T14:04:07.502Z,35.90
2018-07-26T14:06:35.084Z,35.60
2018-07-26T14:09:03.036Z,35.30
2018-07-26T14:11:30.642Z,35.00
2018-07-26T14:13:58.213Z,34.90
2018-07-26T14:16:25.802Z,35.00
2018-07-26T14:18:53.397Z,35.20
2018-07-26T14:21:20.996Z,35.20
2018-07-26T14:23:53.221Z,35.30
2018-07-26T14:26:21.013Z,35.50
2018-07-26T14:28:48.642Z,35.80
2018-07-26T14:31:16.332Z,36.10
2018-07-26T14:33:43.905Z,36.20
2018-07-26T14:36:11.584Z,36.20
2018-07-26T14:38:42.245Z,36.20
2018-07-26T14:41:09.872Z,36.10
2018-07-26T14:43:37.723Z,36.00
2018-07-26T14:46:05.413Z,36.10
2018-07-26T14:48:33.085Z,36.10
2018-07-26T14:51:00.696Z,36.10
2018-07-26T14:53:28.372Z,35.90
2018-07-26T14:55:56.013Z,35.60
2018-07-26T14:58:23.663Z,35.60
2018-07-26T15:00:51.318Z,35.60
2018-07-26T15:03:18.890Z,35.50
2018-07-26T15:05:46.532Z,35.30
2018-07-26T15:08:14.168Z,35.20
2018-07-26T15:10:41.814Z,35.10
2018-07-26T15:13:09.424Z,34.90
2018-07-26T15:15:37.106Z,34.70
2018-07-26T15:18:04.997Z,34.40
2018-07-26T15:20:32.724Z,34.10
2018-07-26T15:23:00.368Z,33.70
2018-07-26T15:25:27.928Z,33.60
2018-07-26T15:27:56.666Z,33.50
2018-07-26T15:30:24.309Z,33.40
2018-07-26T15:32:53.022Z,33.20
2018-07-26T15:35:20.649Z,33.10
2018-07-26T15:37:48.883Z,33.20
2018-07-26T15:40:16.985Z,33.30
2018-07-26T15:42:44.583Z,33.50
2018-07-26T15:45:12.428Z,33.40
2018-07-26T15:47:40.081Z,33.40
2018-07-26T15:50:07.743Z,32.90
2018-07-26T15:52:36.193Z,32.70
2018-07-26T15:55:03.868Z,32.50
2018-07-26T15:57:31.557Z,32.40
2018-07-26T15:59:59.344Z,32.30
2018-07-26T16:02:27.172Z,32.30
2018-07-26T16:04:54.781Z,32.40
2018-07-26T16:07:22.372Z,32.50
2018-07-26T16:09:49.962Z,32.50
2018-07-26T16:12:17.546Z,32.30
2018-07-26T16:14:45.294Z,32.30
2018-07-26T16:17:13.052Z,32.20
2018-07-26T16:19:40.919Z,32.10
2018-07-26T16:22:08.828Z,32.10
2018-07-26T16:24:36.456Z,31.90
2018-07-26T16:27:04.173Z,31.70
2018-07-26T16:31:59.296Z,31.60
2018-07-26T16:34:26.926Z,31.50
2018-07-26T16:36:54.869Z,31.40
2018-07-26T16:39:22.477Z,31.30
2018-07-26T16:41:50.111Z,31.20
2018-07-26T16:44:17.700Z,31.20
2018-07-26T16:46:45.316Z,31.20
2018-07-26T16:49:12.912Z,31.20
2018-07-26T16:51:40.476Z,31.20
2018-07-26T16:54:11.891Z,31.20
2018-07-26T16:56:39.696Z,31.20
2018-07-26T16:59:07.298Z,31.10
2018-07-26T17:01:35.077Z,31.10
2018-07-26T17:04:02.756Z,31.00
2018-07-26T17:06:30.353Z,31.10
2018-07-26T17:08:57.945Z,31.10
2018-07-26T17:11:25.677Z,31.00
2018-07-26T17:13:53.249Z,30.80
2018-07-26T17:16:21.494Z,30.80
2018-07-26T17:18:49.622Z,30.70
2018-07-26T17:21:17.220Z,30.60
2018-07-26T17:23:44.866Z,30.40
2018-07-26T17:28:40.041Z,30.30
2018-07-26T17:31:07.773Z,30.20
2018-07-26T17:33:35.480Z,30.20
2018-07-26T17:36:03.188Z,30.10
2018-07-26T17:38:30.746Z,30.00
2018-07-26T17:40:58.417Z,30.00
2018-07-26T17:43:26.093Z,29.90
2018-07-26T17:45:53.718Z,29.80
2018-07-26T17:48:21.276Z,29.70
2018-07-26T17:50:48.877Z,29.60
2018-07-26T17:53:16.470Z,29.60
2018-07-26T17:55:44.090Z,29.50
2018-07-26T17:58:11.719Z,29.50
2018-07-26T18:00:39.410Z,29.40
2018-07-26T18:03:07.117Z,29.50
2018-07-26T18:05:34.732Z,29.40
2018-07-26T18:08:02.372Z,29.40
2018-07-26T18:10:30.014Z,29.40
2018-07-26T18:12:57.670Z,29.30
2018-07-26T18:15:25.273Z,29.20
2018-07-26T18:17:52.877Z,29.20
2018-07-26T18:20:20.525Z,29.10
2018-07-26T18:22:48.818Z,29.00
2018-07-26T18:25:16.469Z,29.00
2018-07-26T18:27:44.069Z,28.90
2018-07-26T18:30:11.753Z,28.80
2018-07-26T18:32:39.396Z,28.70
2018-07-26T18:35:07.302Z,28.50
2018-07-26T18:37:35.007Z,28.40
2018-07-26T18:40:02.710Z,28.30
2018-07-26T18:42:30.352Z,28.20
2018-07-26T18:44:57.980Z,28.20
2018-07-26T18:47:25.585Z,28.10
2018-07-26T18:52:20.853Z,27.90
2018-07-26T18:54:48.521Z,27.80
2018-07-26T18:57:16.260Z,27.70
2018-07-26T18:59:43.901Z,27.50
2018-07-26T19:02:11.608Z,27.40
2018-07-26T19:04:39.209Z,27.30
2018-07-26T19:07:07.042Z,27.10
2018-07-26T19:09:34.680Z,27.00
2018-07-26T19:12:03.430Z,26.90
2018-07-26T19:14:31.160Z,26.80
2018-07-26T19:16:58.761Z,26.60
2018-07-26T19:19:26.398Z,26.40
2018-07-26T19:21:54.032Z,26.20
2018-07-26T19:24:21.818Z,26.00
2018-07-26T19:26:49.397Z,25.90
2018-07-26T19:29:17.011Z,25.70
2018-07-26T19:31:44.596Z,25.50
2018-07-26T19:34:12.197Z,25.30
2018-07-26T19:36:40.133Z,25.20
2018-07-26T19:39:09.985Z,25.00
2018-07-26T19:41:37.620Z,24.90
2018-07-26T19:44:05.336Z,24.70
2018-07-26T19:46:32.923Z,24.60
2018-07-26T19:51:28.080Z,24.30
2018-07-26T19:53:55.882Z,24.10
2018-07-26T19:56:23.544Z,24.00
2018-07-26T19:58:51.547Z,23.90
2018-07-26T20:01:19.181Z,23.70
2018-07-26T20:03:47.045Z,23.50
2018-07-26T20:06:14.632Z,23.40
2018-07-26T20:08:42.316Z,23.30
2018-07-26T20:11:10.027Z,23.10
2018-07-26T20:13:37.755Z,23.00
2018-07-26T20:16:05.424Z,22.90
2018-07-26T20:18:33.041Z,22.70
2018-07-26T20:21:00.616Z,22.60
2018-07-26T20:23:28.407Z,22.50
2018-07-26T20:25:56.068Z,22.40
2018-07-26T20:28:23.677Z,22.30
2018-07-26T20:30:51.453Z,22.20
2018-07-26T20:33:19.056Z,22.10
2018-07-26T20:35:46.705Z,22.00
2018-07-26T20:38:14.332Z,21.90
2018-07-26T20:40:41.980Z,21.80
2018-07-26T20:43:09.568Z,21.80
2018-07-26T20:45:37.215Z,21.70
2018-07-26T20:48:05.078Z,21.60
2018-07-26T20:50:32.740Z,21.50
2018-07-26T20:53:00.337Z,21.50
2018-07-26T20:55:27.979Z,21.30
2018-07-26T20:57:55.610Z,21.30
2018-07-26T21:00:23.223Z,21.20
2018-07-26T21:02:50.968Z,21.10
2018-07-26T21:05:18.588Z,21.00
2018-07-26T21:07:46.215Z,20.90
2018-07-26T21:10:13.916Z,20.80
2018-07-26T21:13:02.113Z,20.80
2018-07-26T21:15:32.031Z,20.80
2018-07-26T21:17:59.853Z,20.60
2018-07-26T21:20:27.545Z,20.60
2018-07-26T21:22:55.132Z,20.50
2018-07-26T21:25:22.932Z,20.40
2018-07-26T21:28:04.041Z,20.40
2018-07-26T21:30:31.636Z,20.30
2018-07-26T21:32:59.428Z,20.20
2018-07-26T21:35:27.013Z,20.20
2018-07-26T21:37:54.593Z,20.10
2018-07-26T21:40:22.156Z,20.00
2018-07-26T21:42:49.868Z,20.00
2018-07-26T21:45:17.468Z,19.90
2018-07-26T21:47:45.062Z,19.80
2018-07-26T21:50:12.628Z,19.80
2018-07-26T21:52:40.232Z,19.70
2018-07-26T21:55:07.845Z,19.70
2018-07-26T21:57:35.461Z,19.60
2018-07-26T22:00:08.001Z,19.60
2018-07-26T22:05:03.433Z,19.50
2018-07-26T22:09:58.662Z,19.40
2018-07-26T22:12:26.344Z,19.30
2018-07-26T22:14:53.947Z,19.30
2018-07-26T22:17:21.581Z,19.20
2018-07-26T22:19:49.169Z,19.20
2018-07-26T22:22:16.837Z,19.10
2018-07-26T22:24:44.524Z,19.10
2018-07-26T22:27:12.093Z,19.00
2018-07-26T22:29:40.673Z,18.90
2018-07-26T22:32:08.320Z,18.90
2018-07-26T22:34:35.933Z,18.80
2018-07-26T22:37:03.666Z,18.80
2018-07-26T22:39:31.251Z,18.70
2018-07-26T22:41:58.801Z,18.70
2018-07-26T22:44:26.448Z,18.70
2018-07-26T22:49:21.628Z,18.60
2018-07-26T22:51:49.191Z,18.60
2018-07-26T22:54:16.819Z,18.50
2018-07-26T22:56:44.409Z,18.50
2018-07-26T22:59:12.005Z,18.40
2018-07-26T23:01:39.630Z,18.40
2018-07-26T23:04:07.218Z,18.40
2018-07-26T23:06:34.796Z,18.30
2018-07-26T23:09:02.516Z,18.30
2018-07-26T23:11:30.161Z,18.20
2018-07-26T23:13:57.893Z,18.20
2018-07-26T23:16:25.488Z,18.20
2018-07-26T23:18:53.305Z,18.10
2018-07-26T23:21:20.933Z,18.10
2018-07-26T23:23:48.529Z,18.10
2018-07-26T23:26:16.208Z,18.10
2018-07-26T23:28:43.840Z,18.10
2018-07-26T23:31:11.621Z,18.00
2018-07-26T23:33:39.224Z,18.00
2018-07-26T23:36:07.677Z,18.00
2018-07-26T23:38:35.293Z,17.90
2018-07-26T23:41:02.867Z,17.90
2018-07-26T23:43:30.533Z,17.80
2018-07-26T23:45:58.161Z,17.80
2018-07-26T23:48:25.774Z,17.80
2018-07-26T23:50:53.918Z,17.70
2018-07-26T23:53:21.568Z,17.70
2018-07-26T23:55:49.183Z,17.70
2018-07-26T23:58:16.777Z,17.60
